createdAt,value
2022-08-01T00:00:58.023Z,18.35
2022-08-01T00:01:58.074Z,18.32
2022-08-01T00:02:58.079Z,18.30
2022-08-01T00:03:57.951Z,18.33
2022-08-01T00:04:57.929Z,18.30
2022-08-01T00:05:57.903Z,18.25
2022-08-01T00:06:57.885Z,18.27
2022-08-01T00:07:57.861Z,18.32
2022-08-01T00:08:57.837Z,18.30
2022-08-01T00:09:57.815Z,18.32
2022-08-01T00:11:01.442Z,18.32
2022-08-01T00:12:00.068Z,18.29
2022-08-01T00:12:57.751Z,18.26
2022-08-01T00:13:57.729Z,18.29
2022-08-01T00:14:57.706Z,18.30
2022-08-01T00:15:57.680Z,18.29
2022-08-01T00:16:57.659Z,18.25
2022-08-01T00:17:57.633Z,18.26
2022-08-01T00:18:57.616Z,18.30
2022-08-01T00:19:57.591Z,18.26
2022-08-01T00:20:57.568Z,18.30
2022-08-01T00:21:57.543Z,18.35
2022-08-01T00:22:57.529Z,18.33
2022-08-01T00:23:57.497Z,18.32
2022-08-01T00:24:57.483Z,18.36
2022-08-01T00:25:57.459Z,18.41
2022-08-01T00:26:57.433Z,18.32
2022-08-01T00:27:57.409Z,18.35
2022-08-01T00:28:57.389Z,18.37
2022-08-01T00:30:11.714Z,18.42
2022-08-01T00:30:57.339Z,18.42
2022-08-01T00:31:57.320Z,18.47
2022-08-01T00:32:57.298Z,18.39
2022-08-01T00:33:57.270Z,18.50
2022-08-01T00:34:57.248Z,18.44
2022-08-01T00:35:57.226Z,18.44
2022-08-01T00:36:57.202Z,18.44
2022-08-01T00:37:57.196Z,18.45
2022-08-01T00:38:57.157Z,18.47
2022-08-01T00:39:57.135Z,18.44
2022-08-01T00:40:57.115Z,18.48
2022-08-01T00:42:01.676Z,18.48
2022-08-01T00:42:57.071Z,18.50
2022-08-01T00:43:57.045Z,18.45
2022-08-01T00:44:57.019Z,18.52
2022-08-01T00:45:56.999Z,18.51
2022-08-01T00:46:56.975Z,18.52
2022-08-01T00:47:56.950Z,18.57
2022-08-01T00:48:56.962Z,18.52
2022-08-01T00:49:56.908Z,18.52
2022-08-01T00:50:56.885Z,18.52
2022-08-01T00:51:56.861Z,18.52
2022-08-01T00:52:56.841Z,18.37
2022-08-01T00:53:56.817Z,18.51
2022-08-01T00:54:56.794Z,18.48
2022-08-01T00:55:56.773Z,18.58
2022-08-01T00:56:56.751Z,18.55
2022-08-01T00:58:05.542Z,18.58
2022-08-01T00:58:56.704Z,18.62
2022-08-01T00:59:56.684Z,18.52
2022-08-01T01:00:56.697Z,18.62
2022-08-01T01:01:56.691Z,18.55
2022-08-01T01:02:56.615Z,18.54
2022-08-01T01:03:58.963Z,18.52
2022-08-01T01:04:56.570Z,18.52
2022-08-01T01:05:56.545Z,18.55
2022-08-01T01:06:56.524Z,18.65
2022-08-01T01:07:56.498Z,18.66
2022-08-01T01:08:56.478Z,18.60
2022-08-01T01:09:56.455Z,18.66
2022-08-01T01:10:56.435Z,18.55
2022-08-01T01:11:56.412Z,18.63
2022-08-01T01:12:56.388Z,18.55
2022-08-01T01:13:56.363Z,18.62
2022-08-01T01:14:56.343Z,18.52
2022-08-01T01:15:56.324Z,18.60
2022-08-01T01:16:56.297Z,18.57
2022-08-01T01:17:56.275Z,18.70
2022-08-01T01:18:56.253Z,18.60
2022-08-01T01:19:56.229Z,18.66
2022-08-01T01:20:56.207Z,18.63
2022-08-01T01:21:56.186Z,18.67
2022-08-01T01:22:56.161Z,18.72
2022-08-01T01:23:56.140Z,18.73
2022-08-01T01:24:56.115Z,18.69
2022-08-01T01:25:56.095Z,18.70
2022-08-01T01:26:56.070Z,18.76
2022-08-01T01:27:56.048Z,18.69
2022-08-01T01:28:56.026Z,18.78
2022-08-01T01:29:59.335Z,18.73
2022-08-01T01:30:55.983Z,18.75
2022-08-01T01:31:55.958Z,18.72
2022-08-01T01:32:55.938Z,18.73
2022-08-01T01:33:55.910Z,18.67
2022-08-01T01:34:55.889Z,18.70
2022-08-01T01:35:55.866Z,18.67
2022-08-01T01:36:55.844Z,18.69
2022-08-01T01:37:55.820Z,18.78
2022-08-01T01:38:55.800Z,18.78
2022-08-01T01:39:55.777Z,18.75
2022-08-01T01:40:55.754Z,18.73
2022-08-01T01:41:55.731Z,18.75
2022-08-01T01:42:55.708Z,18.80
2022-08-01T01:43:55.685Z,18.82
2022-08-01T01:44:55.669Z,18.76
2022-08-01T01:45:55.640Z,18.78
2022-08-01T01:46:55.618Z,18.76
2022-08-01T01:47:55.609Z,18.75
2022-08-01T01:48:55.625Z,18.75
2022-08-01T01:49:55.550Z,18.82
2022-08-01T01:50:55.527Z,18.78
2022-08-01T01:52:02.074Z,18.81
2022-08-01T01:52:55.482Z,18.78
2022-08-01T01:53:55.460Z,18.76
2022-08-01T01:54:55.439Z,18.75
2022-08-01T01:55:55.420Z,18.80
2022-08-01T01:56:55.393Z,18.81
2022-08-01T01:57:55.371Z,18.80
2022-08-01T01:58:55.347Z,18.76
2022-08-01T01:59:55.329Z,18.76
2022-08-01T02:00:55.305Z,18.88
2022-08-01T02:02:03.537Z,18.84
2022-08-01T02:02:55.325Z,18.84
2022-08-01T02:03:55.235Z,18.75
2022-08-01T02:04:55.212Z,18.85
2022-08-01T02:05:55.190Z,18.90
2022-08-01T02:06:55.166Z,18.87
2022-08-01T02:07:59.392Z,18.92
2022-08-01T02:08:55.124Z,18.90
2022-08-01T02:09:55.100Z,18.94
2022-08-01T02:10:55.077Z,18.85
2022-08-01T02:12:07.557Z,18.87
2022-08-01T02:12:55.035Z,18.91
2022-08-01T02:13:55.011Z,18.94
2022-08-01T02:14:54.987Z,18.95
2022-08-01T02:15:59.459Z,18.94
2022-08-01T02:16:54.943Z,18.91
2022-08-01T02:17:54.921Z,18.95
2022-08-01T02:18:54.897Z,18.95
2022-08-01T02:19:54.878Z,19.00
2022-08-01T02:20:54.852Z,19.07
2022-08-01T02:21:54.829Z,18.94
2022-08-01T02:22:54.811Z,19.02
2022-08-01T02:23:54.786Z,18.94
2022-08-01T02:24:54.762Z,19.04
2022-08-01T02:26:09.539Z,18.94
2022-08-01T02:26:54.718Z,19.04
2022-08-01T02:27:54.697Z,18.95
2022-08-01T02:28:54.672Z,18.99
2022-08-01T02:29:54.649Z,18.95
2022-08-01T02:30:54.633Z,18.99
2022-08-01T02:31:54.607Z,19.10
2022-08-01T02:32:54.585Z,18.99
2022-08-01T02:33:54.561Z,19.06
2022-08-01T02:34:54.536Z,19.06
2022-08-01T02:36:31.145Z,19.06
2022-08-01T02:36:54.493Z,18.98
2022-08-01T02:37:54.469Z,19.07
2022-08-01T02:38:54.451Z,19.04
2022-08-01T02:39:54.429Z,19.11
2022-08-01T02:40:54.403Z,19.07
2022-08-01T02:41:54.381Z,19.06
2022-08-01T02:42:54.359Z,19.13
2022-08-01T02:43:54.336Z,19.02
2022-08-01T02:44:54.315Z,19.11
2022-08-01T02:45:54.291Z,19.08
2022-08-01T02:46:54.269Z,19.08
2022-08-01T02:47:54.250Z,19.00
2022-08-01T02:48:54.292Z,18.98
2022-08-01T02:49:54.203Z,19.04
2022-08-01T02:50:54.183Z,18.99
2022-08-01T02:51:54.160Z,19.02
2022-08-01T02:52:54.135Z,19.11
2022-08-01T02:53:54.111Z,19.11
2022-08-01T02:54:54.093Z,19.02
2022-08-01T02:55:54.073Z,19.06
2022-08-01T02:56:54.044Z,19.00
2022-08-01T02:57:56.911Z,18.99
2022-08-01T02:58:54.003Z,19.04
2022-08-01T02:59:53.981Z,19.02
2022-08-01T03:00:53.956Z,19.06
2022-08-01T03:01:55.170Z,19.10
2022-08-01T03:02:53.913Z,19.06
2022-08-01T03:03:53.889Z,19.14
2022-08-01T03:04:57.044Z,19.07
2022-08-01T03:05:53.843Z,19.04
2022-08-01T03:06:53.822Z,19.08
2022-08-01T03:07:53.800Z,19.11
2022-08-01T03:08:53.778Z,19.14
2022-08-01T03:09:53.884Z,19.11
2022-08-01T03:10:53.732Z,19.16
2022-08-01T03:11:53.712Z,19.14
2022-08-01T03:12:53.689Z,19.11
2022-08-01T03:13:53.683Z,19.08
2022-08-01T03:14:53.644Z,19.19
2022-08-01T03:15:53.621Z,19.19
2022-08-01T03:16:53.600Z,19.14
2022-08-01T03:17:53.574Z,19.16
2022-08-01T03:18:53.554Z,19.16
2022-08-01T03:19:53.530Z,19.10
2022-08-01T03:20:53.509Z,19.13
2022-08-01T03:21:53.488Z,19.13
2022-08-01T03:22:53.465Z,19.13
2022-08-01T03:23:55.209Z,19.14
2022-08-01T03:24:53.420Z,19.11
2022-08-01T03:25:53.400Z,19.18
2022-08-01T03:26:53.379Z,19.21
2022-08-01T03:27:53.356Z,19.18
2022-08-01T03:28:53.330Z,19.26
2022-08-01T03:29:53.312Z,19.22
2022-08-01T03:30:53.286Z,19.19
2022-08-01T03:31:53.265Z,19.23
2022-08-01T03:32:53.245Z,19.19
2022-08-01T03:33:53.221Z,19.13
2022-08-01T03:34:53.199Z,19.21
2022-08-01T03:35:53.177Z,19.16
2022-08-01T03:36:53.161Z,19.18
2022-08-01T03:38:15.358Z,19.25
2022-08-01T03:38:53.108Z,19.16
2022-08-01T03:39:53.087Z,19.16
2022-08-01T03:40:53.065Z,19.16
2022-08-01T03:41:56.620Z,19.21
2022-08-01T03:42:53.020Z,19.18
2022-08-01T03:43:53.002Z,19.21
2022-08-01T03:44:52.975Z,19.18
2022-08-01T03:45:52.954Z,19.18
2022-08-01T03:46:52.933Z,19.19
2022-08-01T03:47:52.910Z,19.19
2022-08-01T03:48:52.970Z,19.19
2022-08-01T03:49:52.863Z,19.21
2022-08-01T03:50:52.851Z,19.19
2022-08-01T03:51:52.822Z,19.21
2022-08-01T03:52:52.802Z,19.21
2022-08-01T03:53:52.778Z,19.25
2022-08-01T03:54:52.753Z,19.21
2022-08-01T03:55:52.731Z,19.16
2022-08-01T03:56:52.717Z,19.21
2022-08-01T03:57:52.685Z,19.23
2022-08-01T03:58:52.667Z,19.23
2022-08-01T03:59:52.644Z,19.19
2022-08-01T04:00:52.622Z,19.21
2022-08-01T04:01:52.664Z,19.32
2022-08-01T04:02:52.585Z,19.25
2022-08-01T04:03:52.559Z,19.19
2022-08-01T04:04:52.533Z,19.22
2022-08-01T04:05:52.510Z,19.26
2022-08-01T04:06:52.489Z,19.26
2022-08-01T04:07:52.465Z,19.31
2022-08-01T04:08:52.444Z,19.14
2022-08-01T04:09:52.427Z,19.19
2022-08-01T04:10:52.398Z,19.18
2022-08-01T04:11:52.381Z,19.22
2022-08-01T04:12:52.357Z,19.21
2022-08-01T04:13:52.335Z,19.19
2022-08-01T04:14:52.312Z,19.25
2022-08-01T04:15:52.291Z,19.19
2022-08-01T04:16:52.267Z,19.23
2022-08-01T04:17:52.246Z,19.28
2022-08-01T04:18:52.222Z,19.28
2022-08-01T04:19:52.202Z,19.28
2022-08-01T04:20:52.180Z,19.25
2022-08-01T04:21:52.156Z,19.29
2022-08-01T04:22:52.137Z,19.37
2022-08-01T04:23:53.516Z,19.37
2022-08-01T04:24:56.465Z,19.39
2022-08-01T04:25:52.067Z,19.39
2022-08-01T04:26:52.048Z,19.40
2022-08-01T04:27:52.700Z,19.31
2022-08-01T04:28:52.003Z,19.40
2022-08-01T04:29:51.979Z,19.40
2022-08-01T04:30:51.958Z,19.32
2022-08-01T04:31:51.938Z,19.26
2022-08-01T04:32:51.913Z,19.41
2022-08-01T04:33:51.895Z,19.41
2022-08-01T04:34:51.867Z,19.31
2022-08-01T04:36:03.445Z,19.36
2022-08-01T04:36:51.824Z,19.36
2022-08-01T04:37:51.800Z,19.37
2022-08-01T04:38:51.782Z,19.39
2022-08-01T04:39:51.760Z,19.37
2022-08-01T04:40:51.735Z,19.39
2022-08-01T04:41:51.712Z,19.41
2022-08-01T04:42:51.691Z,19.41
2022-08-01T04:43:51.672Z,19.36
2022-08-01T04:44:51.649Z,19.43
2022-08-01T04:45:51.624Z,19.39
2022-08-01T04:46:51.605Z,19.41
2022-08-01T04:47:51.581Z,19.46
2022-08-01T04:48:51.628Z,19.39
2022-08-01T04:49:51.631Z,19.39
2022-08-01T04:50:51.517Z,19.46
2022-08-01T04:51:51.494Z,19.48
2022-08-01T04:52:51.470Z,19.47
2022-08-01T04:53:51.446Z,19.54
2022-08-01T04:54:51.425Z,19.54
2022-08-01T04:55:51.402Z,19.51
2022-08-01T04:56:51.591Z,19.59
2022-08-01T04:57:51.360Z,19.58
2022-08-01T04:58:51.342Z,19.63
2022-08-01T04:59:51.319Z,19.71
2022-08-01T05:00:51.334Z,19.69
2022-08-01T05:01:51.359Z,19.69
2022-08-01T05:02:51.251Z,19.78
2022-08-01T05:03:51.228Z,19.69
2022-08-01T05:04:51.208Z,19.73
2022-08-01T05:05:51.181Z,19.78
2022-08-01T05:06:51.163Z,19.92
2022-08-01T05:07:51.142Z,19.91
2022-08-01T05:08:51.121Z,19.94
2022-08-01T05:09:51.099Z,20.01
2022-08-01T05:10:51.073Z,20.02
2022-08-01T05:11:51.050Z,20.01
2022-08-01T05:12:51.033Z,20.03
2022-08-01T05:13:51.014Z,20.06
2022-08-01T05:14:50.992Z,19.98
2022-08-01T05:15:50.965Z,20.02
2022-08-01T05:16:50.943Z,19.94
2022-08-01T05:17:50.918Z,20.01
2022-08-01T05:18:50.898Z,20.02
2022-08-01T05:19:50.883Z,20.08
2022-08-01T05:20:50.856Z,20.13
2022-08-01T05:21:50.833Z,20.02
2022-08-01T05:22:50.814Z,20.17
2022-08-01T05:23:50.790Z,20.13
2022-08-01T05:24:50.770Z,20.14
2022-08-01T05:25:56.925Z,20.21
2022-08-01T05:26:50.725Z,20.11
2022-08-01T05:27:50.965Z,20.10
2022-08-01T05:28:50.683Z,20.17
2022-08-01T05:29:50.659Z,20.06
2022-08-01T05:30:50.640Z,20.13
2022-08-01T05:31:50.616Z,20.17
2022-08-01T05:32:50.601Z,20.13
2022-08-01T05:33:50.582Z,20.23
2022-08-01T05:34:50.555Z,20.21
2022-08-01T05:35:50.534Z,20.21
2022-08-01T05:36:55.301Z,20.29
2022-08-01T05:37:50.489Z,20.31
2022-08-01T05:38:50.475Z,20.31
2022-08-01T05:39:50.447Z,20.31
2022-08-01T05:40:50.439Z,20.36
2022-08-01T05:41:50.406Z,20.36
2022-08-01T05:42:50.382Z,20.48
2022-08-01T05:43:50.364Z,20.42
2022-08-01T05:44:50.341Z,20.55
2022-08-01T05:45:50.318Z,20.50
2022-08-01T05:46:50.294Z,20.51
2022-08-01T05:47:50.274Z,20.54
2022-08-01T05:48:50.375Z,20.62
2022-08-01T05:49:50.231Z,20.62
2022-08-01T05:50:50.211Z,20.59
2022-08-01T05:51:50.190Z,20.54
2022-08-01T05:52:50.165Z,20.59
2022-08-01T05:53:50.142Z,20.58
2022-08-01T05:54:50.124Z,20.59
2022-08-01T05:55:50.102Z,20.54
2022-08-01T05:56:50.085Z,20.62
2022-08-01T05:57:50.062Z,20.73
2022-08-01T05:58:50.039Z,20.72
2022-08-01T05:59:50.021Z,20.70
2022-08-01T06:00:49.998Z,20.77
2022-08-01T06:01:50.054Z,20.69
2022-08-01T06:02:49.955Z,20.73
2022-08-01T06:03:49.953Z,20.73
2022-08-01T06:04:49.916Z,20.77
2022-08-01T06:05:49.888Z,20.72
2022-08-01T06:06:49.870Z,20.77
2022-08-01T06:07:49.848Z,20.73
2022-08-01T06:08:49.830Z,20.77
2022-08-01T06:09:49.803Z,20.72
2022-08-01T06:10:49.785Z,20.84
2022-08-01T06:11:49.762Z,20.74
2022-08-01T06:12:49.767Z,20.76
2022-08-01T06:13:49.721Z,20.72
2022-08-01T06:14:49.696Z,20.80
2022-08-01T06:15:49.677Z,20.76
2022-08-01T06:16:49.658Z,20.80
2022-08-01T06:17:49.636Z,20.61
2022-08-01T06:18:51.194Z,20.72
2022-08-01T06:19:49.593Z,20.61
2022-08-01T06:20:49.572Z,20.58
2022-08-01T06:21:49.558Z,20.64
2022-08-01T06:22:52.503Z,20.59
2022-08-01T06:23:49.505Z,20.66
2022-08-01T06:24:49.485Z,20.62
2022-08-01T06:25:49.464Z,20.57
2022-08-01T06:26:49.441Z,20.74
2022-08-01T06:27:49.425Z,20.74
2022-08-01T06:28:49.402Z,20.76
2022-08-01T06:29:53.465Z,20.84
2022-08-01T06:30:49.355Z,20.76
2022-08-01T06:31:49.340Z,20.79
2022-08-01T06:32:49.318Z,20.74
2022-08-01T06:33:49.294Z,20.77
2022-08-01T06:34:49.269Z,20.77
2022-08-01T06:35:49.252Z,20.80
2022-08-01T06:36:49.229Z,20.67
2022-08-01T06:37:49.207Z,20.88
2022-08-01T06:38:49.189Z,20.80
2022-08-01T06:39:49.180Z,20.87
2022-08-01T06:40:49.145Z,20.72
2022-08-01T06:41:49.125Z,20.84
2022-08-01T06:42:49.102Z,20.80
2022-08-01T06:43:49.081Z,20.85
2022-08-01T06:44:49.060Z,20.82
2022-08-01T06:45:49.047Z,20.80
2022-08-01T06:46:49.016Z,20.87
2022-08-01T06:47:50.893Z,20.95
2022-08-01T06:48:49.063Z,21.01
2022-08-01T06:49:48.955Z,20.92
2022-08-01T06:50:48.932Z,21.01
2022-08-01T06:51:48.910Z,21.03
2022-08-01T06:52:48.891Z,21.06
2022-08-01T06:53:48.868Z,21.19
2022-08-01T06:54:48.847Z,21.09
2022-08-01T06:55:48.829Z,21.17
2022-08-01T06:56:48.809Z,21.17
2022-08-01T06:57:48.784Z,21.22
2022-08-01T06:58:48.763Z,21.17
2022-08-01T06:59:54.413Z,21.14
2022-08-01T07:00:48.789Z,21.17
2022-08-01T07:01:48.696Z,21.19
2022-08-01T07:02:48.679Z,21.24
2022-08-01T07:03:54.628Z,21.17
2022-08-01T07:04:48.640Z,21.13
2022-08-01T07:05:48.613Z,21.09
2022-08-01T07:06:48.595Z,21.09
2022-08-01T07:07:48.574Z,21.09
2022-08-01T07:08:48.550Z,20.92
2022-08-01T07:09:48.531Z,20.97
2022-08-01T07:10:48.509Z,21.04
2022-08-01T07:11:48.488Z,21.10
2022-08-01T07:12:48.470Z,21.10
2022-08-01T07:13:48.458Z,21.21
2022-08-01T07:14:48.424Z,21.13
2022-08-01T07:15:48.403Z,21.24
2022-08-01T07:16:48.383Z,21.22
2022-08-01T07:17:48.364Z,21.28
2022-08-01T07:18:48.342Z,21.37
2022-08-01T07:19:48.321Z,21.43
2022-08-01T07:20:52.651Z,21.40
2022-08-01T07:21:50.246Z,21.32
2022-08-01T07:22:48.490Z,21.25
2022-08-01T07:23:48.240Z,21.21
2022-08-01T07:24:48.220Z,21.24
2022-08-01T07:25:49.946Z,21.28
2022-08-01T07:26:53.692Z,21.38
2022-08-01T07:27:48.156Z,21.43
2022-08-01T07:28:48.140Z,21.37
2022-08-01T07:29:48.113Z,21.38
2022-08-01T07:30:48.091Z,21.43
2022-08-01T07:31:48.071Z,21.58
2022-08-01T07:32:48.051Z,21.54
2022-08-01T07:33:49.391Z,21.59
2022-08-01T07:34:48.017Z,21.75
2022-08-01T07:35:47.987Z,21.80
2022-08-01T07:36:47.976Z,21.72
2022-08-01T07:37:49.154Z,21.82
2022-08-01T07:38:47.926Z,21.86
2022-08-01T07:39:47.910Z,21.86
2022-08-01T07:40:47.885Z,21.84
2022-08-01T07:42:06.504Z,21.86
2022-08-01T07:42:47.842Z,21.79
2022-08-01T07:43:56.669Z,21.84
2022-08-01T07:44:47.801Z,21.90
2022-08-01T07:45:47.782Z,21.98
2022-08-01T07:46:47.757Z,21.99
2022-08-01T07:47:47.736Z,22.05
2022-08-01T07:48:47.748Z,22.15
2022-08-01T07:49:47.739Z,22.05
2022-08-01T07:50:47.677Z,22.21
2022-08-01T07:52:02.308Z,22.28
2022-08-01T07:52:47.632Z,22.14
2022-08-01T07:53:47.614Z,22.18
2022-08-01T07:54:52.009Z,22.15
2022-08-01T07:55:47.572Z,22.27
2022-08-01T07:56:47.551Z,22.21
2022-08-01T07:57:47.534Z,22.14
2022-08-01T07:58:47.510Z,22.14
2022-08-01T07:59:47.707Z,22.18
2022-08-01T08:00:47.471Z,22.30
2022-08-01T08:01:47.473Z,22.43
2022-08-01T08:02:47.427Z,22.43
2022-08-01T08:03:47.410Z,22.58
2022-08-01T08:04:49.289Z,22.70
2022-08-01T08:05:58.660Z,22.85
2022-08-01T08:06:47.348Z,22.97
2022-08-01T08:07:47.328Z,23.10
2022-08-01T08:08:47.309Z,23.22
2022-08-01T08:09:51.137Z,23.33
2022-08-01T08:10:47.268Z,23.38
2022-08-01T08:11:48.390Z,23.46
2022-08-01T08:12:47.226Z,23.46
2022-08-01T08:13:47.209Z,23.50
2022-08-01T08:14:47.340Z,23.42
2022-08-01T08:15:48.420Z,23.39
2022-08-01T08:16:47.150Z,23.13
2022-08-01T08:17:54.881Z,22.85
2022-08-01T08:18:47.122Z,22.68
2022-08-01T08:19:47.092Z,22.28
2022-08-01T08:20:47.070Z,22.30
2022-08-01T08:21:47.050Z,22.17
2022-08-01T08:22:47.033Z,22.10
2022-08-01T08:23:47.009Z,22.00
2022-08-01T08:24:47.239Z,21.94
2022-08-01T08:25:46.971Z,21.98
2022-08-01T08:26:46.949Z,21.90
2022-08-01T08:27:46.931Z,21.82
2022-08-01T08:28:46.910Z,21.75
2022-08-01T08:29:46.890Z,21.67
2022-08-01T08:30:46.869Z,21.59
2022-08-01T08:31:52.285Z,21.59
2022-08-01T08:32:46.829Z,21.59
2022-08-01T08:33:46.809Z,21.54
2022-08-01T08:34:46.787Z,21.58
2022-08-01T08:35:53.770Z,21.56
2022-08-01T08:36:47.933Z,21.50
2022-08-01T08:37:47.727Z,21.58
2022-08-01T08:38:46.702Z,21.62
2022-08-01T08:39:46.685Z,21.58
2022-08-01T08:40:46.667Z,21.56
2022-08-01T08:41:49.061Z,21.62
2022-08-01T08:42:46.623Z,21.59
2022-08-01T08:43:46.602Z,21.54
2022-08-01T08:44:46.582Z,21.43
2022-08-01T08:45:59.063Z,21.34
2022-08-01T08:46:46.544Z,21.16
2022-08-01T08:47:46.520Z,21.10
2022-08-01T08:48:46.499Z,20.92
2022-08-01T08:49:46.543Z,20.92
2022-08-01T08:50:46.457Z,20.88
2022-08-01T08:51:46.436Z,20.72
2022-08-01T08:52:46.413Z,20.41
2022-08-01T08:53:46.395Z,20.36
2022-08-01T08:54:46.374Z,20.17
2022-08-01T08:55:55.471Z,19.95
2022-08-01T08:56:46.330Z,19.96
2022-08-01T08:57:46.306Z,20.14
2022-08-01T08:58:46.284Z,20.16
2022-08-01T08:59:46.263Z,20.23
2022-08-01T09:00:46.242Z,20.26
2022-08-01T09:01:46.217Z,20.33
2022-08-01T09:02:46.274Z,20.28
2022-08-01T09:03:46.172Z,20.36
2022-08-01T09:04:46.155Z,20.54
2022-08-01T09:05:46.132Z,20.69
2022-08-01T09:06:46.110Z,20.62
2022-08-01T09:07:46.105Z,20.88
2022-08-01T09:08:46.068Z,20.99
2022-08-01T09:09:46.043Z,21.07
2022-08-01T09:10:46.021Z,21.17
2022-08-01T09:11:46.002Z,21.32
2022-08-01T09:12:45.979Z,21.53
2022-08-01T09:13:45.955Z,21.69
2022-08-01T09:14:45.936Z,21.65
2022-08-01T09:15:45.911Z,21.68
2022-08-01T09:16:48.765Z,21.92
2022-08-01T09:17:45.868Z,22.14
2022-08-01T09:18:45.875Z,22.39
2022-08-01T09:19:45.830Z,22.67
2022-08-01T09:20:45.805Z,22.68
2022-08-01T09:21:45.785Z,22.98
2022-08-01T09:22:47.861Z,23.48
2022-08-01T09:23:53.352Z,23.75
2022-08-01T09:24:45.722Z,24.18
2022-08-01T09:25:46.267Z,24.39
2022-08-01T09:26:45.679Z,24.53
2022-08-01T09:27:46.494Z,23.69
2022-08-01T09:28:47.940Z,23.57
2022-08-01T09:29:45.620Z,23.58
2022-08-01T09:30:45.601Z,23.50
2022-08-01T09:31:47.641Z,23.47
2022-08-01T09:32:45.567Z,23.53
2022-08-01T09:33:45.544Z,23.70
2022-08-01T09:34:45.524Z,23.75
2022-08-01T09:35:45.504Z,24.06
2022-08-01T09:36:45.484Z,24.13
2022-08-01T09:37:47.440Z,24.03
2022-08-01T09:38:50.908Z,23.90
2022-08-01T09:39:45.424Z,23.80
2022-08-01T09:40:45.404Z,23.53
2022-08-01T09:41:45.386Z,23.40
2022-08-01T09:42:45.369Z,23.33
2022-08-01T09:43:45.346Z,23.12
2022-08-01T09:44:54.932Z,23.00
2022-08-01T09:45:45.712Z,22.98
2022-08-01T09:46:45.286Z,22.97
2022-08-01T09:47:45.271Z,22.88
2022-08-01T09:48:45.250Z,22.98
2022-08-01T09:49:50.152Z,22.95
2022-08-01T09:50:45.213Z,22.94
2022-08-01T09:51:59.604Z,22.91
2022-08-01T09:52:45.169Z,23.04
2022-08-01T09:53:51.068Z,23.10
2022-08-01T09:54:45.133Z,23.32
2022-08-01T09:55:45.114Z,23.50
2022-08-01T09:56:45.090Z,23.75
2022-08-01T09:57:45.070Z,23.43
2022-08-01T09:58:45.051Z,23.63
2022-08-01T09:59:57.766Z,23.73
2022-08-01T10:00:45.914Z,23.75
2022-08-01T10:01:44.996Z,23.60
2022-08-01T10:02:44.973Z,23.69
2022-08-01T10:03:45.053Z,23.80
2022-08-01T10:04:44.938Z,24.08
2022-08-01T10:05:46.839Z,24.62
2022-08-01T10:06:44.901Z,24.96
2022-08-01T10:07:44.880Z,25.17
2022-08-01T10:08:44.863Z,25.13
2022-08-01T10:09:44.843Z,25.64
2022-08-01T10:10:46.361Z,25.73
2022-08-01T10:11:45.305Z,25.87
2022-08-01T10:12:45.733Z,25.58
2022-08-01T10:13:44.764Z,25.45
2022-08-01T10:14:46.241Z,25.17
2022-08-01T10:15:44.729Z,24.76
2022-08-01T10:16:44.713Z,24.27
2022-08-01T10:17:50.851Z,24.10
2022-08-01T10:18:44.680Z,24.05
2022-08-01T10:19:44.659Z,23.95
2022-08-01T10:20:44.639Z,23.90
2022-08-01T10:21:57.895Z,23.65
2022-08-01T10:22:44.603Z,23.63
2022-08-01T10:23:44.600Z,23.46
2022-08-01T10:24:44.565Z,23.42
2022-08-01T10:25:46.695Z,23.16
2022-08-01T10:26:44.527Z,23.02
2022-08-01T10:27:44.506Z,22.85
2022-08-01T10:28:44.488Z,22.51
2022-08-01T10:29:46.674Z,22.33
2022-08-01T10:30:44.447Z,22.10
2022-08-01T10:31:44.436Z,21.94
2022-08-01T10:32:44.415Z,21.69
2022-08-01T10:33:50.377Z,21.64
2022-08-01T10:34:45.001Z,21.61
2022-08-01T10:35:47.896Z,21.71
2022-08-01T10:36:44.332Z,21.88
2022-08-01T10:37:51.875Z,22.05
2022-08-01T10:38:44.296Z,22.20
2022-08-01T10:39:44.744Z,22.31
2022-08-01T10:40:44.252Z,22.52
2022-08-01T10:41:44.232Z,22.57
2022-08-01T10:42:44.209Z,22.75
2022-08-01T10:43:45.655Z,22.83
2022-08-01T10:44:44.171Z,22.82
2022-08-01T10:45:44.153Z,22.94
2022-08-01T10:46:45.829Z,23.17
2022-08-01T10:47:50.163Z,23.46
2022-08-01T10:48:44.105Z,23.61
2022-08-01T10:49:44.118Z,23.69
2022-08-01T10:50:44.207Z,23.78
2022-08-01T10:51:52.330Z,23.73
2022-08-01T10:52:44.036Z,23.79
2022-08-01T10:53:43.987Z,23.84
2022-08-01T10:54:52.128Z,23.88
2022-08-01T10:55:43.964Z,24.06
2022-08-01T10:56:43.930Z,24.24
2022-08-01T10:57:43.909Z,24.27
2022-08-01T10:58:44.161Z,24.34
2022-08-01T10:59:50.861Z,24.67
2022-08-01T11:00:43.855Z,24.98
2022-08-01T11:01:45.220Z,25.13
2022-08-01T11:02:45.594Z,25.39
2022-08-01T11:03:56.855Z,25.69
2022-08-01T11:04:44.265Z,25.88
2022-08-01T11:05:43.758Z,26.39
2022-08-01T11:06:43.740Z,26.39
2022-08-01T11:07:43.737Z,26.33
2022-08-01T11:08:43.702Z,26.32
2022-08-01T11:09:45.963Z,26.05
2022-08-01T11:10:43.849Z,25.82
2022-08-01T11:11:43.646Z,25.69
2022-08-01T11:12:44.022Z,25.72
2022-08-01T11:13:43.611Z,25.58
2022-08-01T11:14:55.674Z,25.39
2022-08-01T11:15:50.094Z,25.17
2022-08-01T11:16:43.556Z,24.95
2022-08-01T11:17:43.593Z,24.85
2022-08-01T11:18:43.523Z,24.64
2022-08-01T11:19:43.506Z,24.32
2022-08-01T11:20:43.486Z,24.12
2022-08-01T11:21:57.932Z,23.98
2022-08-01T11:22:43.450Z,23.87
2022-08-01T11:23:43.428Z,23.94
2022-08-01T11:24:43.409Z,24.10
2022-08-01T11:26:05.540Z,24.18
2022-08-01T11:26:43.375Z,24.42
2022-08-01T11:27:43.356Z,24.68
2022-08-01T11:29:04.699Z,24.85
2022-08-01T11:29:43.315Z,25.35
2022-08-01T11:30:43.300Z,25.57
2022-08-01T11:31:43.278Z,25.83
2022-08-01T11:33:06.544Z,26.06
2022-08-01T11:33:45.505Z,26.26
2022-08-01T11:34:43.225Z,25.70
2022-08-01T11:35:43.208Z,25.67
2022-08-01T11:36:58.324Z,25.55
2022-08-01T11:37:43.172Z,26.05
2022-08-01T11:38:43.359Z,26.77
2022-08-01T11:39:43.136Z,27.37
2022-08-01T11:40:43.118Z,27.13
2022-08-01T11:41:45.093Z,26.92
2022-08-01T11:42:43.082Z,27.09
2022-08-01T11:43:43.062Z,26.82
2022-08-01T11:44:43.044Z,26.69
2022-08-01T11:45:43.026Z,26.95
2022-08-01T11:46:43.013Z,27.78
2022-08-01T11:47:42.995Z,28.04
2022-08-01T11:48:42.975Z,27.96
2022-08-01T11:49:43.506Z,27.66
2022-08-01T11:50:42.943Z,27.36
2022-08-01T11:51:42.928Z,27.17
2022-08-01T11:52:42.909Z,27.07
2022-08-01T11:53:42.887Z,26.84
2022-08-01T11:54:42.872Z,27.46
2022-08-01T11:55:42.857Z,27.99
2022-08-01T11:56:46.478Z,27.70
2022-08-01T11:57:42.826Z,27.36
2022-08-01T11:58:43.820Z,27.04
2022-08-01T11:59:59.834Z,27.34
2022-08-01T12:00:44.013Z,28.00
2022-08-01T12:01:42.755Z,28.88
2022-08-01T12:02:42.900Z,29.30
2022-08-01T12:03:44.437Z,29.97
2022-08-01T12:04:42.707Z,30.54
2022-08-01T12:05:43.294Z,30.83
2022-08-01T12:06:42.672Z,30.82
2022-08-01T12:07:42.658Z,29.95
2022-08-01T12:08:42.640Z,29.27
2022-08-01T12:09:42.623Z,28.68
2022-08-01T12:10:49.608Z,28.66
2022-08-01T12:11:42.597Z,28.93
2022-08-01T12:12:42.580Z,29.16
2022-08-01T12:13:42.559Z,29.55
2022-08-01T12:14:42.544Z,29.49
2022-08-01T12:15:42.531Z,29.33
2022-08-01T12:16:42.517Z,29.27
2022-08-01T12:17:43.633Z,28.96
2022-08-01T12:18:42.481Z,28.24
2022-08-01T12:19:42.470Z,28.66
2022-08-01T12:20:55.657Z,28.92
2022-08-01T12:21:42.432Z,29.12
2022-08-01T12:22:42.438Z,29.31
2022-08-01T12:23:42.404Z,29.65
2022-08-01T12:24:42.386Z,29.58
2022-08-01T12:25:42.375Z,29.53
2022-08-01T12:26:42.373Z,28.96
2022-08-01T12:27:42.344Z,29.37
2022-08-01T12:28:42.327Z,29.23
2022-08-01T12:29:42.307Z,29.49
2022-08-01T12:30:42.297Z,29.49
2022-08-01T12:31:42.279Z,29.86
2022-08-01T12:32:42.264Z,29.82
2022-08-01T12:33:42.250Z,29.53
2022-08-01T12:34:42.233Z,29.73
2022-08-01T12:35:42.218Z,30.01
2022-08-01T12:36:42.202Z,29.98
2022-08-01T12:37:42.185Z,30.31
2022-08-01T12:38:42.172Z,30.27
2022-08-01T12:39:42.153Z,30.46
2022-08-01T12:40:45.052Z,30.57
2022-08-01T12:41:42.122Z,30.10
2022-08-01T12:42:42.113Z,29.21
2022-08-01T12:43:42.093Z,28.25
2022-08-01T12:44:42.076Z,27.85
2022-08-01T12:45:54.538Z,27.31
2022-08-01T12:46:44.481Z,26.75
2022-08-01T12:47:42.030Z,26.45
2022-08-01T12:48:42.015Z,26.12
2022-08-01T12:49:42.002Z,25.97
2022-08-01T12:50:41.982Z,26.72
2022-08-01T12:51:41.964Z,27.21
2022-08-01T12:52:41.947Z,27.72